Inwood, Indiana
Current Conditions -  °F | °C
As of 12:55 PM on Monday 24 Nov 2014 (Local Time) from KOXI Reporting Station
Overcast Overcast  
Wind Chill: 21°   Ceiling: 1300
Heat Index: 35°   Visibility: 5mi
Dew Point: 32°   Wind: 29mph
Humidity: 90%   Direction: 250°WSW
Pressure: 29.38"   Gusts: 40mph
Location:  41.3572°N, 86.3281°W
Report Text: KOXI 241755Z AUTO 25025G35KT 5SM BKN013 BKN018 OVC024 01/00 A2938 RMK AO1 T00140000 10273 21130
Loading
Personal Weather Stations






























Interactive Weather Map New forecast layout! Learn more

10-Day Weather Forecast

Advertisements
Track Severe Weather on mobile